地図

経路データ

SID SEASON NUMBER BASIN SUBBASIN NAME ISO_TIME NATURE LAT LON WMO_WIND WMO_PRES WMO_AGENCY TRACK_TYPE DIST2LAND LANDFALL IFLAG USA_AGENCY USA_ATCF_ID USA_LAT USA_LON USA_RECORD USA_STATUS USA_WIND USA_PRES USA_SSHS USA_R34_NE USA_R34_SE USA_R34_SW USA_R34_NW USA_R50_NE USA_R50_SE USA_R50_SW USA_R50_NW USA_R64_NE USA_R64_SE USA_R64_SW USA_R64_NW USA_POCI USA_ROCI USA_RMW USA_EYE TOKYO_LAT TOKYO_LON TOKYO_GRADE TOKYO_WIND TOKYO_PRES TOKYO_R50_DIR TOKYO_R50_LONG TOKYO_R50_SHORT TOKYO_R30_DIR TOKYO_R30_LONG TOKYO_R30_SHORT TOKYO_LAND CMA_LAT CMA_LON CMA_CAT CMA_WIND CMA_PRES HKO_LAT HKO_LON HKO_CAT HKO_WIND HKO_PRES NEWDELHI_LAT NEWDELHI_LON NEWDELHI_GRADE NEWDELHI_WIND NEWDELHI_PRES NEWDELHI_CI NEWDELHI_DP NEWDELHI_POCI REUNION_LAT REUNION_LON REUNION_TYPE REUNION_WIND REUNION_PRES REUNION_TNUM REUNION_CI REUNION_RMW REUNION_R34_NE REUNION_R34_SE REUNION_R34_SW REUNION_R34_NW REUNION_R50_NE REUNION_R50_SE REUNION_R50_SW REUNION_R50_NW REUNION_R64_NE REUNION_R64_SE REUNION_R64_SW REUNION_R64_NW BOM_LAT BOM_LON BOM_TYPE BOM_WIND BOM_PRES BOM_TNUM BOM_CI BOM_RMW BOM_R34_NE BOM_R34_SE BOM_R34_SW BOM_R34_NW BOM_R50_NE BOM_R50_SE BOM_R50_SW BOM_R50_NW BOM_R64_NE BOM_R64_SE BOM_R64_SW BOM_R64_NW BOM_ROCI BOM_POCI BOM_EYE BOM_POS_METHOD BOM_PRES_METHOD NADI_LAT NADI_LON NADI_CAT NADI_WIND NADI_PRES WELLINGTON_LAT WELLINGTON_LON WELLINGTON_WIND WELLINGTON_PRES DS824_LAT DS824_LON DS824_STAGE DS824_WIND DS824_PRES TD9636_LAT TD9636_LON TD9636_STAGE TD9636_WIND TD9636_PRES TD9635_LAT TD9635_LON TD9635_WIND TD9635_PRES TD9635_ROCI NEUMANN_LAT NEUMANN_LON NEUMANN_CLASS NEUMANN_WIND NEUMANN_PRES MLC_LAT MLC_LON MLC_CLASS MLC_WIND MLC_PRES USA_GUST BOM_GUST BOM_GUST_PER REUNION_GUST REUNION_GUST_PER USA_SEAHGT USA_SEARAD_NE USA_SEARAD_SE USA_SEARAD_SW USA_SEARAD_NW STORM_SPEED STORM_DIR
1868071S15426 1868 8 SI MM NOT_NAMED 1868-03-10 18:00:00 NR -15.0000 65.6000 main 1013 1004 __________O___ -1 -15.0000 65.6000 7 2 255
1868071S15426 1868 8 SI MM NOT_NAMED 1868-03-10 21:00:00 NR -15.0232 65.5092 main 1004 989 __________P___ -1 -15.0232 65.5092 7 2 254
1868071S15426 1868 8 SI MM NOT_NAMED 1868-03-11 00:00:00 NR -15.0572 65.3947 main 989 971 __________P___ -1 -15.0572 65.3947 7 3 251
1868071S15426 1868 8 SI MM NOT_NAMED 1868-03-11 03:00:00 NR -15.1125 65.2329 main 971 947 __________P___ -1 -15.1125 65.2329 7 4 249
1868071S15426 1868 8 SI MM NOT_NAMED 1868-03-11 06:00:00 NR -15.2000 65.0000 main 947 915 __________O___ -1 -15.2000 65.0000 7 6 248
1868071S15426 1868 8 SI MM NOT_NAMED 1868-03-11 09:00:00 NR -15.3256 64.6818 main 915 867 __________P___ -1 -15.3256 64.6818 7 7 248
1868071S15426 1868 8 SI MM NOT_NAMED 1868-03-11 12:00:00 NR -15.4779 64.3029 main 867 827 __________P___ -1 -15.4779 64.3029 7 8 247
1868071S15426 1868 8 SI MM NOT_NAMED 1868-03-11 15:00:00 NR -15.6412 63.8974 main 827 779 __________P___ -1 -15.6412 63.8974 7 8 247
1868071S15426 1868 8 SI MM NOT_NAMED 1868-03-11 18:00:00 NR -15.8000 63.5000 main 779 747 __________O___ -1 -15.8000 63.5000 7 8 248
1868071S15426 1868 8 SI MM NOT_NAMED 1868-03-11 21:00:00 NR -15.9279 63.1563 main 747 707 __________P___ -1 -15.9279 63.1563 7 7 249
1868071S15426 1868 8 SI MM NOT_NAMED 1868-03-12 00:00:00 NR -16.0497 62.8272 main 707 668 __________P___ -1 -16.0497 62.8272 7 7 249
1868071S15426 1868 8 SI MM NOT_NAMED 1868-03-12 03:00:00 NR -16.1717 62.5095 main 668 637 __________P___ -1 -16.1717 62.5095 7 7 247
1868071S15426 1868 8 SI MM NOT_NAMED 1868-03-12 06:00:00 NR -16.3000 62.2000 main 637 606 __________O___ -1 -16.3000 62.2000 7 7 246
1868071S15426 1868 8 SI MM NOT_NAMED 1868-03-12 09:00:00 NR -16.4386 61.8927 main 606 568 __________P___ -1 -16.4386 61.8927 7 7 244
1868071S15426 1868 8 SI MM NOT_NAMED 1868-03-12 12:00:00 NR -16.5848 61.5923 main 568 537 __________P___ -1 -16.5848 61.5923 7 6 242
1868071S15426 1868 8 SI MM NOT_NAMED 1868-03-12 15:00:00 NR -16.7386 61.2958 main 537 499 __________P___ -1 -16.7386 61.2958 7 7 241
1868071S15426 1868 8 SI MM NOT_NAMED 1868-03-12 18:00:00 NR -16.9000 61.0000 main 499 461 __________O___ -1 -16.9000 61.0000 7 7 241
1868071S15426 1868 8 SI MM NOT_NAMED 1868-03-12 21:00:00 NR -17.0596 60.6998 main 461 431 __________P___ -1 -17.0596 60.6998 7 7 240
1868071S15426 1868 8 SI MM NOT_NAMED 1868-03-13 00:00:00 NR -17.2273 60.3997 main 431 393 __________P___ -1 -17.2273 60.3997 7 7 239
1868071S15426 1868 8 SI MM NOT_NAMED 1868-03-13 03:00:00 NR -17.4064 60.0997 main 393 356 __________P___ -1 -17.4064 60.0997 7 7 237
1868071S15426 1868 8 SI MM NOT_NAMED 1868-03-13 06:00:00 NR -17.6000 59.8000 main 356 319 __________O___ -1 -17.6000 59.8000 7 7 235
1868071S15426 1868 8 SI MM NOT_NAMED 1868-03-13 09:00:00 NR -17.8064 59.5039 main 319 282 __________P___ -1 -17.8064 59.5039 7 7 233
1868071S15426 1868 8 SI MM NOT_NAMED 1868-03-13 12:00:00 NR -18.0273 59.2072 main 282 247 __________P___ -1 -18.0273 59.2072 7 7 231
1868071S15426 1868 8 SI MM NOT_NAMED 1868-03-13 15:00:00 NR -18.2595 58.9069 main 237 202 __________P___ -1 -18.2595 58.9069 7 7 231
1868071S15426 1868 8 SI MM NOT_NAMED 1868-03-13 18:00:00 NR -18.5000 58.6000 main 202 168 __________O___ -1 -18.5000 58.6000 7 8 232
1868071S15426 1868 8 SI MM NOT_NAMED 1868-03-13 21:00:00 NR -18.7348 58.2578 main 168 124 __________P___ -1 -18.7348 58.2578 7 8 234
1868071S15426 1868 8 SI MM NOT_NAMED 1868-03-14 00:00:00 NR -18.9777 57.9126 main 124 100 __________P___ -1 -18.9777 57.9126 7 8 232
1868071S15426 1868 8 SI MM NOT_NAMED 1868-03-14 03:00:00 NR -19.2317 57.5860 main 100 70 __________P___ -1 -19.2317 57.5860 7 8 228
1868071S15426 1868 8 SI MM NOT_NAMED 1868-03-14 06:00:00 NR -19.5000 57.3000 main 70 53 __________O___ -1 -19.5000 57.3000 7 7 222
1868071S15426 1868 8 SI MM NOT_NAMED 1868-03-14 09:00:00 NR -19.7691 57.0653 main 53 53 __________P___ -1 -19.7691 57.0653 7 7 216
1868071S15426 1868 8 SI MM NOT_NAMED 1868-03-14 12:00:00 NR -20.0547 56.8746 main 56 56 __________P___ -1 -20.0547 56.8746 7 7 209
1868071S15426 1868 8 SI MM NOT_NAMED 1868-03-14 15:00:00 NR -20.3630 56.7217 main 63 62 __________P___ -1 -20.3630 56.7217 7 7 202
1868071S15426 1868 8 SI MM NOT_NAMED 1868-03-14 18:00:00 NR -20.7000 56.6000 main 76 73 __________O___ -1 -20.7000 56.6000 7 7 198
1868071S15426 1868 8 SI MM NOT_NAMED 1868-03-14 21:00:00 NR -21.0468 56.4800 main 73 62 __________P___ -1 -21.0468 56.4800 7 8 195
1868071S15426 1868 8 SI MM NOT_NAMED 1868-03-15 00:00:00 NR -21.4250 56.3901 main 63 63 __________P___ -1 -21.4250 56.3901 7 8 190
1868071S15426 1868 8 SI MM NOT_NAMED 1868-03-15 03:00:00 NR -21.8406 56.3301 main 76 76 __________P___ -1 -21.8406 56.3301 7 9 185
1868071S15426 1868 8 SI MM NOT_NAMED 1868-03-15 06:00:00 NR -22.3000 56.3000 main 123 123 __________O___ -1 -22.3000 56.3000 7 10 183
1868071S15426 1868 8 SI MM NOT_NAMED 1868-03-15 09:00:00 NR -22.8190 56.2919 main 172 172 __________P___ -1 -22.8190 56.2919 7 11 179
1868071S15426 1868 8 SI MM NOT_NAMED 1868-03-15 12:00:00 NR -23.3775 56.3121 main 234 234 __________P___ -1 -23.3775 56.3121 7 11 177
1868071S15426 1868 8 SI MM NOT_NAMED 1868-03-15 15:00:00 NR -23.9472 56.3513 main 291 291 __________P___ -1 -23.9472 56.3513 7 11 176
1868071S15426 1868 8 SI MM NOT_NAMED 1868-03-15 18:00:00 NR -24.5000 56.4000 main 356 356 __________O___ -1 -24.5000 56.4000 7 11 175
1868071S15426 1868 8 SI MM NOT_NAMED 1868-03-15 21:00:00 NR -25.0143 56.4500 main 412 412 __________P___ -1 -25.0143 56.4500 7 10 175
1868071S15426 1868 8 SI MM NOT_NAMED 1868-03-16 00:00:00 NR -25.4949 56.5000 main 467 467 __________P___ -1 -25.4949 56.4999 7 9 175
1868071S15426 1868 8 SI MM NOT_NAMED 1868-03-16 03:00:00 NR -25.9531 56.5499 main 522 522 __________P___ -1 -25.9531 56.5499 7 9 175
1868071S15426 1868 8 SI MM NOT_NAMED 1868-03-16 06:00:00 NR -26.4000 56.6000 main 567 __________O___ -1 -26.4000 56.6000 7 9 174

IBTrACS Databaseについて

本データベースは、米国NOAAが公開する1842年以降の世界の熱帯低気圧のベストトラックデータアーカイブInternational Best Track Archive for Climate Stewardship (IBTrACS)を、ウェブで閲覧しやすい形式に変換したものです。

最終更新日:2021-11-26